sensor_id;sensor_type;location;lat;lon;timestamp;P1;durP1;ratioP1;P2;durP2;ratioP2
77170;SDS011;66144;50.020;14.422;2023-06-24T00:01:24;4.15;;;1.90;;
77170;SDS011;66144;50.020;14.422;2023-06-24T00:03:50;2.47;;;1.63;;
77170;SDS011;66144;50.020;14.422;2023-06-24T00:06:18;2.40;;;1.75;;
77170;SDS011;66144;50.020;14.422;2023-06-24T00:08:47;2.83;;;1.80;;
77170;SDS011;66144;50.020;14.422;2023-06-24T00:11:14;3.17;;;1.77;;
77170;SDS011;66144;50.020;14.422;2023-06-24T00:13:40;3.38;;;2.30;;
77170;SDS011;66144;50.020;14.422;2023-06-24T00:16:07;3.42;;;2.03;;
77170;SDS011;66144;50.020;14.422;2023-06-24T00:18:33;2.88;;;1.88;;
77170;SDS011;66144;50.020;14.422;2023-06-24T00:20:58;3.80;;;2.10;;
77170;SDS011;66144;50.020;14.422;2023-06-24T00:23:26;3.58;;;2.38;;
77170;SDS011;66144;50.020;14.422;2023-06-24T00:25:53;3.50;;;2.22;;
77170;SDS011;66144;50.020;14.422;2023-06-24T00:28:20;3.08;;;2.10;;
77170;SDS011;66144;50.020;14.422;2023-06-24T00:30:46;3.35;;;2.15;;
77170;SDS011;66144;50.020;14.422;2023-06-24T00:33:12;4.22;;;2.30;;
77170;SDS011;66144;50.020;14.422;2023-06-24T00:35:41;3.72;;;2.17;;
77170;SDS011;66144;50.020;14.422;2023-06-24T00:38:08;5.00;;;2.28;;
77170;SDS011;66144;50.020;14.422;2023-06-24T00:40:33;3.20;;;2.08;;
77170;SDS011;66144;50.020;14.422;2023-06-24T00:42:59;3.75;;;2.42;;
77170;SDS011;66144;50.020;14.422;2023-06-24T00:45:26;3.60;;;2.17;;
77170;SDS011;66144;50.020;14.422;2023-06-24T00:47:52;4.60;;;2.33;;
77170;SDS011;66144;50.020;14.422;2023-06-24T00:50:19;3.40;;;2.20;;
77170;SDS011;66144;50.020;14.422;2023-06-24T00:52:45;4.57;;;2.47;;
77170;SDS011;66144;50.020;14.422;2023-06-24T00:55:11;3.63;;;2.30;;
77170;SDS011;66144;50.020;14.422;2023-06-24T00:57:43;4.72;;;2.20;;
77170;SDS011;66144;50.020;14.422;2023-06-24T01:00:10;3.67;;;2.22;;
77170;SDS011;66144;50.020;14.422;2023-06-24T01:02:39;4.03;;;2.53;;
77170;SDS011;66144;50.020;14.422;2023-06-24T01:05:06;3.67;;;2.50;;
77170;SDS011;66144;50.020;14.422;2023-06-24T01:07:32;4.65;;;2.63;;
77170;SDS011;66144;50.020;14.422;2023-06-24T01:10:00;4.63;;;2.63;;
77170;SDS011;66144;50.020;14.422;2023-06-24T01:12:27;4.60;;;2.30;;
77170;SDS011;66144;50.020;14.422;2023-06-24T01:14:52;3.72;;;2.33;;
77170;SDS011;66144;50.020;14.422;2023-06-24T01:17:27;4.45;;;2.45;;
77170;SDS011;66144;50.020;14.422;2023-06-24T01:20:20;3.63;;;2.20;;
77170;SDS011;66144;50.020;14.422;2023-06-24T01:26:07;3.20;;;2.13;;
77170;SDS011;66144;50.020;14.422;2023-06-24T01:31:46;4.38;;;2.28;;
77170;SDS011;66144;50.020;14.422;2023-06-24T01:37:11;3.95;;;2.63;;
77170;SDS011;66144;50.020;14.422;2023-06-24T01:42:37;4.35;;;2.70;;
77170;SDS011;66144;50.020;14.422;2023-06-24T01:45:13;4.00;;;2.50;;
77170;SDS011;66144;50.020;14.422;2023-06-24T01:47:43;3.63;;;2.30;;
77170;SDS011;66144;50.020;14.422;2023-06-24T01:50:12;5.05;;;2.83;;
77170;SDS011;66144;50.020;14.422;2023-06-24T01:52:43;4.28;;;2.78;;
77170;SDS011;66144;50.020;14.422;2023-06-24T01:55:10;4.70;;;2.75;;
77170;SDS011;66144;50.020;14.422;2023-06-24T01:57:38;4.15;;;2.95;;
77170;SDS011;66144;50.020;14.422;2023-06-24T02:00:07;4.40;;;2.80;;
77170;SDS011;66144;50.020;14.422;2023-06-24T02:02:34;4.78;;;3.30;;
77170;SDS011;66144;50.020;14.422;2023-06-24T02:05:01;4.15;;;2.92;;
77170;SDS011;66144;50.020;14.422;2023-06-24T02:07:29;3.88;;;2.60;;
77170;SDS011;66144;50.020;14.422;2023-06-24T02:09:56;4.63;;;3.28;;
77170;SDS011;66144;50.020;14.422;2023-06-24T02:12:24;4.30;;;2.60;;
77170;SDS011;66144;50.020;14.422;2023-06-24T02:14:51;5.85;;;3.33;;
77170;SDS011;66144;50.020;14.422;2023-06-24T02:17:19;4.15;;;2.70;;
77170;SDS011;66144;50.020;14.422;2023-06-24T02:19:45;4.93;;;2.92;;
77170;SDS011;66144;50.020;14.422;2023-06-24T02:22:12;5.25;;;3.17;;
77170;SDS011;66144;50.020;14.422;2023-06-24T02:24:38;4.28;;;2.88;;
77170;SDS011;66144;50.020;14.422;2023-06-24T02:27:06;4.47;;;2.78;;
77170;SDS011;66144;50.020;14.422;2023-06-24T02:29:32;4.50;;;3.45;;
77170;SDS011;66144;50.020;14.422;2023-06-24T02:32:00;5.72;;;2.95;;
77170;SDS011;66144;50.020;14.422;2023-06-24T02:34:25;4.63;;;2.92;;
77170;SDS011;66144;50.020;14.422;2023-06-24T02:36:51;5.03;;;3.50;;
77170;SDS011;66144;50.020;14.422;2023-06-24T02:39:16;4.45;;;2.75;;
77170;SDS011;66144;50.020;14.422;2023-06-24T02:41:44;4.72;;;3.10;;
77170;SDS011;66144;50.020;14.422;2023-06-24T02:44:10;4.65;;;2.55;;
77170;SDS011;66144;50.020;14.422;2023-06-24T02:46:35;4.97;;;3.25;;
77170;SDS011;66144;50.020;14.422;2023-06-24T02:49:01;5.10;;;3.17;;
77170;SDS011;66144;50.020;14.422;2023-06-24T02:51:28;4.90;;;3.17;;
77170;SDS011;66144;50.020;14.422;2023-06-24T02:53:55;3.78;;;2.55;;
77170;SDS011;66144;50.020;14.422;2023-06-24T02:56:23;3.88;;;2.60;;
77170;SDS011;66144;50.020;14.422;2023-06-24T02:58:49;4.53;;;2.88;;
77170;SDS011;66144;50.020;14.422;2023-06-24T03:01:17;3.85;;;2.75;;
77170;SDS011;66144;50.020;14.422;2023-06-24T03:03:43;3.88;;;2.42;;
77170;SDS011;66144;50.020;14.422;2023-06-24T03:06:14;5.57;;;2.38;;
77170;SDS011;66144;50.020;14.422;2023-06-24T03:08:42;4.03;;;2.75;;
77170;SDS011;66144;50.020;14.422;2023-06-24T03:11:11;6.40;;;3.03;;
77170;SDS011;66144;50.020;14.422;2023-06-24T03:13:38;4.45;;;2.78;;
77170;SDS011;66144;50.020;14.422;2023-06-24T03:16:04;4.50;;;3.03;;
77170;SDS011;66144;50.020;14.422;2023-06-24T03:18:30;4.82;;;2.83;;
77170;SDS011;66144;50.020;14.422;2023-06-24T03:20:55;4.55;;;3.00;;
77170;SDS011;66144;50.020;14.422;2023-06-24T03:23:20;4.60;;;3.03;;
77170;SDS011;66144;50.020;14.422;2023-06-24T03:25:46;3.97;;;3.28;;
77170;SDS011;66144;50.020;14.422;2023-06-24T03:28:11;3.53;;;2.50;;
77170;SDS011;66144;50.020;14.422;2023-06-24T03:30:36;3.90;;;2.40;;
77170;SDS011;66144;50.020;14.422;2023-06-24T03:33:02;5.00;;;2.88;;
77170;SDS011;66144;50.020;14.422;2023-06-24T03:35:27;4.57;;;2.80;;
77170;SDS011;66144;50.020;14.422;2023-06-24T03:37:54;5.05;;;2.80;;
77170;SDS011;66144;50.020;14.422;2023-06-24T03:40:19;4.78;;;2.95;;
77170;SDS011;66144;50.020;14.422;2023-06-24T03:42:45;4.45;;;2.95;;
77170;SDS011;66144;50.020;14.422;2023-06-24T03:45:10;4.18;;;2.83;;
77170;SDS011;66144;50.020;14.422;2023-06-24T03:47:36;5.05;;;3.17;;
77170;SDS011;66144;50.020;14.422;2023-06-24T03:50:01;5.20;;;2.90;;
77170;SDS011;66144;50.020;14.422;2023-06-24T03:52:26;3.70;;;2.25;;
77170;SDS011;66144;50.020;14.422;2023-06-24T03:54:52;3.92;;;2.80;;
77170;SDS011;66144;50.020;14.422;2023-06-24T03:57:18;5.03;;;2.45;;
77170;SDS011;66144;50.020;14.422;2023-06-24T03:59:47;4.60;;;2.90;;
77170;SDS011;66144;50.020;14.422;2023-06-24T04:02:13;3.85;;;2.80;;
77170;SDS011;66144;50.020;14.422;2023-06-24T04:04:39;3.97;;;2.47;;
77170;SDS011;66144;50.020;14.422;2023-06-24T04:07:04;4.32;;;2.80;;
77170;SDS011;66144;50.020;14.422;2023-06-24T04:09:33;4.95;;;3.33;;
77170;SDS011;66144;50.020;14.422;2023-06-24T04:12:00;4.85;;;3.20;;
77170;SDS011;66144;50.020;14.422;2023-06-24T04:14:25;4.25;;;2.88;;
77170;SDS011;66144;50.020;14.422;2023-06-24T04:16:51;4.00;;;2.78;;
77170;SDS011;66144;50.020;14.422;2023-06-24T04:19:16;4.32;;;3.00;;
77170;SDS011;66144;50.020;14.422;2023-06-24T04:21:42;9.85;;;2.88;;
77170;SDS011;66144;50.020;14.422;2023-06-24T04:24:07;5.13;;;3.15;;
77170;SDS011;66144;50.020;14.422;2023-06-24T04:26:32;5.82;;;3.33;;
77170;SDS011;66144;50.020;14.422;2023-06-24T04:28:58;4.45;;;3.70;;
77170;SDS011;66144;50.020;14.422;2023-06-24T04:31:23;5.65;;;3.17;;
77170;SDS011;66144;50.020;14.422;2023-06-24T04:33:49;5.40;;;4.00;;
77170;SDS011;66144;50.020;14.422;2023-06-24T04:36:14;4.93;;;2.85;;
77170;SDS011;66144;50.020;14.422;2023-06-24T04:38:39;5.63;;;3.53;;
77170;SDS011;66144;50.020;14.422;2023-06-24T04:41:05;5.28;;;3.40;;
77170;SDS011;66144;50.020;14.422;2023-06-24T04:43:30;5.80;;;3.30;;
77170;SDS011;66144;50.020;14.422;2023-06-24T04:45:56;6.68;;;3.47;;
77170;SDS011;66144;50.020;14.422;2023-06-24T04:48:25;6.03;;;3.55;;
77170;SDS011;66144;50.020;14.422;2023-06-24T04:50:51;6.22;;;3.85;;
77170;SDS011;66144;50.020;14.422;2023-06-24T04:53:18;8.07;;;4.57;;
77170;SDS011;66144;50.020;14.422;2023-06-24T04:55:43;7.60;;;4.32;;
77170;SDS011;66144;50.020;14.422;2023-06-24T04:58:09;5.72;;;4.00;;
77170;SDS011;66144;50.020;14.422;2023-06-24T05:00:34;6.68;;;4.15;;
77170;SDS011;66144;50.020;14.422;2023-06-24T05:02:59;5.68;;;3.95;;
77170;SDS011;66144;50.020;14.422;2023-06-24T05:05:25;6.53;;;4.63;;
77170;SDS011;66144;50.020;14.422;2023-06-24T05:07:50;7.38;;;4.22;;
77170;SDS011;66144;50.020;14.422;2023-06-24T05:10:16;5.78;;;4.00;;
77170;SDS011;66144;50.020;14.422;2023-06-24T05:12:41;6.93;;;4.78;;
77170;SDS011;66144;50.020;14.422;2023-06-24T05:15:06;5.72;;;4.32;;
77170;SDS011;66144;50.020;14.422;2023-06-24T05:17:32;6.60;;;4.65;;
77170;SDS011;66144;50.020;14.422;2023-06-24T05:19:58;6.15;;;4.63;;
77170;SDS011;66144;50.020;14.422;2023-06-24T05:22:23;8.27;;;4.95;;
77170;SDS011;66144;50.020;14.422;2023-06-24T05:24:49;8.98;;;5.85;;
77170;SDS011;66144;50.020;14.422;2023-06-24T05:27:14;7.10;;;4.90;;
77170;SDS011;66144;50.020;14.422;2023-06-24T05:29:39;6.32;;;4.57;;
77170;SDS011;66144;50.020;14.422;2023-06-24T05:32:05;8.48;;;5.53;;
77170;SDS011;66144;50.020;14.422;2023-06-24T05:34:31;8.85;;;5.07;;
77170;SDS011;66144;50.020;14.422;2023-06-24T05:36:56;10.85;;;6.10;;
77170;SDS011;66144;50.020;14.422;2023-06-24T05:39:22;7.28;;;5.20;;
77170;SDS011;66144;50.020;14.422;2023-06-24T05:41:47;7.05;;;5.32;;
77170;SDS011;66144;50.020;14.422;2023-06-24T05:44:15;9.35;;;5.65;;
77170;SDS011;66144;50.020;14.422;2023-06-24T05:46:43;11.48;;;5.13;;
77170;SDS011;66144;50.020;14.422;2023-06-24T05:49:08;8.65;;;5.32;;
77170;SDS011;66144;50.020;14.422;2023-06-24T05:51:34;9.02;;;5.68;;
77170;SDS011;66144;50.020;14.422;2023-06-24T05:53:59;7.60;;;5.18;;
77170;SDS011;66144;50.020;14.422;2023-06-24T05:56:25;9.68;;;5.95;;
77170;SDS011;66144;50.020;14.422;2023-06-24T05:58:51;9.15;;;5.68;;
77170;SDS011;66144;50.020;14.422;2023-06-24T06:01:16;9.57;;;5.95;;
77170;SDS011;66144;50.020;14.422;2023-06-24T06:03:41;7.60;;;5.82;;
77170;SDS011;66144;50.020;14.422;2023-06-24T06:06:07;7.88;;;5.65;;
77170;SDS011;66144;50.020;14.422;2023-06-24T06:08:32;8.00;;;5.88;;
77170;SDS011;66144;50.020;14.422;2023-06-24T06:10:59;7.85;;;6.07;;
77170;SDS011;66144;50.020;14.422;2023-06-24T06:13:26;7.68;;;6.28;;
77170;SDS011;66144;50.020;14.422;2023-06-24T06:15:52;9.80;;;6.55;;
77170;SDS011;66144;50.020;14.422;2023-06-24T06:18:17;8.32;;;5.68;;
77170;SDS011;66144;50.020;14.422;2023-06-24T06:20:42;7.68;;;5.75;;
77170;SDS011;66144;50.020;14.422;2023-06-24T06:23:08;9.98;;;6.50;;
77170;SDS011;66144;50.020;14.422;2023-06-24T06:25:33;8.75;;;6.28;;
77170;SDS011;66144;50.020;14.422;2023-06-24T06:27:59;10.30;;;7.15;;
77170;SDS011;66144;50.020;14.422;2023-06-24T06:30:24;7.85;;;5.93;;
77170;SDS011;66144;50.020;14.422;2023-06-24T06:32:49;10.43;;;7.00;;
77170;SDS011;66144;50.020;14.422;2023-06-24T06:35:15;8.15;;;6.13;;
77170;SDS011;66144;50.020;14.422;2023-06-24T06:37:40;8.82;;;6.30;;
77170;SDS011;66144;50.020;14.422;2023-06-24T06:40:06;9.52;;;6.50;;
77170;SDS011;66144;50.020;14.422;2023-06-24T06:42:32;9.32;;;6.32;;
77170;SDS011;66144;50.020;14.422;2023-06-24T06:44:57;9.25;;;6.72;;
77170;SDS011;66144;50.020;14.422;2023-06-24T06:47:22;10.45;;;8.68;;
77170;SDS011;66144;50.020;14.422;2023-06-24T06:49:48;13.05;;;8.50;;
77170;SDS011;66144;50.020;14.422;2023-06-24T06:52:13;10.60;;;7.63;;
77170;SDS011;66144;50.020;14.422;2023-06-24T06:54:38;12.98;;;7.80;;
77170;SDS011;66144;50.020;14.422;2023-06-24T06:57:04;13.52;;;7.65;;
77170;SDS011;66144;50.020;14.422;2023-06-24T06:59:30;13.65;;;9.07;;
77170;SDS011;66144;50.020;14.422;2023-06-24T07:01:56;11.60;;;8.70;;
77170;SDS011;66144;50.020;14.422;2023-06-24T07:04:22;14.55;;;10.32;;
77170;SDS011;66144;50.020;14.422;2023-06-24T07:06:48;12.40;;;9.88;;
77170;SDS011;66144;50.020;14.422;2023-06-24T07:09:13;13.10;;;9.60;;
77170;SDS011;66144;50.020;14.422;2023-06-24T07:11:40;15.98;;;10.75;;
77170;SDS011;66144;50.020;14.422;2023-06-24T07:14:06;13.35;;;10.25;;
77170;SDS011;66144;50.020;14.422;2023-06-24T07:16:31;13.98;;;10.45;;
77170;SDS011;66144;50.020;14.422;2023-06-24T07:18:56;14.63;;;10.43;;
77170;SDS011;66144;50.020;14.422;2023-06-24T07:21:22;12.52;;;9.18;;
77170;SDS011;66144;50.020;14.422;2023-06-24T07:23:47;12.90;;;10.48;;
77170;SDS011;66144;50.020;14.422;2023-06-24T07:26:13;13.07;;;10.80;;
77170;SDS011;66144;50.020;14.422;2023-06-24T07:28:38;12.27;;;9.20;;
77170;SDS011;66144;50.020;14.422;2023-06-24T07:31:03;13.18;;;10.13;;
77170;SDS011;66144;50.020;14.422;2023-06-24T07:33:29;12.25;;;9.80;;
77170;SDS011;66144;50.020;14.422;2023-06-24T07:35:56;12.00;;;9.68;;
77170;SDS011;66144;50.020;14.422;2023-06-24T07:38:21;11.45;;;9.25;;
77170;SDS011;66144;50.020;14.422;2023-06-24T07:40:47;11.23;;;9.35;;
77170;SDS011;66144;50.020;14.422;2023-06-24T07:43:12;10.57;;;9.32;;
77170;SDS011;66144;50.020;14.422;2023-06-24T07:45:38;11.63;;;10.38;;
77170;SDS011;66144;50.020;14.422;2023-06-24T07:48:03;11.52;;;9.85;;
77170;SDS011;66144;50.020;14.422;2023-06-24T07:50:30;12.07;;;9.82;;
77170;SDS011;66144;50.020;14.422;2023-06-24T07:52:56;11.50;;;10.40;;
77170;SDS011;66144;50.020;14.422;2023-06-24T07:55:21;11.57;;;10.32;;
77170;SDS011;66144;50.020;14.422;2023-06-24T07:57:47;13.20;;;10.68;;
77170;SDS011;66144;50.020;14.422;2023-06-24T08:00:13;13.88;;;11.25;;
77170;SDS011;66144;50.020;14.422;2023-06-24T08:02:40;11.60;;;10.50;;
77170;SDS011;66144;50.020;14.422;2023-06-24T08:05:06;12.05;;;10.57;;
77170;SDS011;66144;50.020;14.422;2023-06-24T08:07:32;11.52;;;10.18;;
77170;SDS011;66144;50.020;14.422;2023-06-24T08:09:57;14.00;;;12.48;;
77170;SDS011;66144;50.020;14.422;2023-06-24T08:12:23;15.60;;;12.63;;
77170;SDS011;66144;50.020;14.422;2023-06-24T08:14:48;14.27;;;11.23;;
77170;SDS011;66144;50.020;14.422;2023-06-24T08:17:13;11.93;;;9.75;;
77170;SDS011;66144;50.020;14.422;2023-06-24T08:19:39;13.77;;;10.05;;
77170;SDS011;66144;50.020;14.422;2023-06-24T08:22:04;11.60;;;10.18;;
77170;SDS011;66144;50.020;14.422;2023-06-24T08:24:30;11.63;;;9.55;;
77170;SDS011;66144;50.020;14.422;2023-06-24T08:26:56;10.60;;;9.50;;
77170;SDS011;66144;50.020;14.422;2023-06-24T08:29:22;10.13;;;9.02;;
77170;SDS011;66144;50.020;14.422;2023-06-24T08:31:47;10.93;;;9.68;;
77170;SDS011;66144;50.020;14.422;2023-06-24T08:34:12;10.75;;;9.75;;
77170;SDS011;66144;50.020;14.422;2023-06-24T08:36:38;12.25;;;10.80;;
77170;SDS011;66144;50.020;14.422;2023-06-24T08:39:03;11.38;;;9.40;;
77170;SDS011;66144;50.020;14.422;2023-06-24T08:41:29;10.65;;;9.60;;
77170;SDS011;66144;50.020;14.422;2023-06-24T08:43:54;10.32;;;9.32;;
77170;SDS011;66144;50.020;14.422;2023-06-24T08:46:20;9.68;;;8.70;;
77170;SDS011;66144;50.020;14.422;2023-06-24T08:48:47;9.73;;;8.82;;
77170;SDS011;66144;50.020;14.422;2023-06-24T08:51:14;13.18;;;8.75;;
77170;SDS011;66144;50.020;14.422;2023-06-24T08:53:43;9.75;;;8.30;;
77170;SDS011;66144;50.020;14.422;2023-06-24T08:56:10;10.63;;;8.80;;
77170;SDS011;66144;50.020;14.422;2023-06-24T08:58:36;10.30;;;8.55;;
77170;SDS011;66144;50.020;14.422;2023-06-24T09:01:01;10.88;;;9.27;;
77170;SDS011;66144;50.020;14.422;2023-06-24T09:03:28;10.00;;;8.20;;
77170;SDS011;66144;50.020;14.422;2023-06-24T09:05:53;8.63;;;7.72;;
77170;SDS011;66144;50.020;14.422;2023-06-24T09:08:19;8.77;;;7.88;;
77170;SDS011;66144;50.020;14.422;2023-06-24T09:10:46;10.20;;;9.20;;
77170;SDS011;66144;50.020;14.422;2023-06-24T09:13:21;11.18;;;9.77;;
77170;SDS011;66144;50.020;14.422;2023-06-24T09:15:58;11.52;;;10.32;;
77170;SDS011;66144;50.020;14.422;2023-06-24T09:18:29;12.07;;;10.98;;
77170;SDS011;66144;50.020;14.422;2023-06-24T09:20:56;10.52;;;9.43;;
77170;SDS011;66144;50.020;14.422;2023-06-24T09:23:24;9.73;;;8.82;;
77170;SDS011;66144;50.020;14.422;2023-06-24T09:25:57;12.48;;;10.88;;
77170;SDS011;66144;50.020;14.422;2023-06-24T09:28:26;10.05;;;9.05;;
77170;SDS011;66144;50.020;14.422;2023-06-24T09:31:08;10.63;;;9.52;;
77170;SDS011;66144;50.020;14.422;2023-06-24T09:33:34;10.38;;;9.38;;
77170;SDS011;66144;50.020;14.422;2023-06-24T09:36:01;11.80;;;10.30;;
77170;SDS011;66144;50.020;14.422;2023-06-24T09:38:35;10.50;;;9.50;;
77170;SDS011;66144;50.020;14.422;2023-06-24T09:41:05;8.32;;;7.53;;
77170;SDS011;66144;50.020;14.422;2023-06-24T09:43:34;10.13;;;8.88;;
77170;SDS011;66144;50.020;14.422;2023-06-24T09:46:02;9.18;;;8.07;;
77170;SDS011;66144;50.020;14.422;2023-06-24T09:48:28;8.82;;;7.72;;
77170;SDS011;66144;50.020;14.422;2023-06-24T09:50:54;9.90;;;8.98;;
77170;SDS011;66144;50.020;14.422;2023-06-24T09:53:23;10.57;;;9.48;;
77170;SDS011;66144;50.020;14.422;2023-06-24T09:55:50;11.63;;;10.52;;
77170;SDS011;66144;50.020;14.422;2023-06-24T09:58:16;10.00;;;9.00;;
77170;SDS011;66144;50.020;14.422;2023-06-24T10:00:43;12.45;;;11.18;;
77170;SDS011;66144;50.020;14.422;2023-06-24T10:03:09;11.07;;;10.05;;
77170;SDS011;66144;50.020;14.422;2023-06-24T10:05:35;10.52;;;9.55;;
77170;SDS011;66144;50.020;14.422;2023-06-24T10:08:01;11.43;;;10.43;;
77170;SDS011;66144;50.020;14.422;2023-06-24T10:10:30;10.68;;;9.77;;
77170;SDS011;66144;50.020;14.422;2023-06-24T10:12:56;11.98;;;10.88;;
77170;SDS011;66144;50.020;14.422;2023-06-24T10:15:21;12.00;;;10.90;;
77170;SDS011;66144;50.020;14.422;2023-06-24T10:17:47;10.30;;;9.30;;
77170;SDS011;66144;50.020;14.422;2023-06-24T10:20:13;10.30;;;9.30;;
77170;SDS011;66144;50.020;14.422;2023-06-24T10:22:50;10.57;;;9.57;;
77170;SDS011;66144;50.020;14.422;2023-06-24T10:25:16;10.85;;;9.73;;
77170;SDS011;66144;50.020;14.422;2023-06-24T10:27:43;12.50;;;9.30;;
77170;SDS011;66144;50.020;14.422;2023-06-24T10:30:08;10.18;;;9.00;;
77170;SDS011;66144;50.020;14.422;2023-06-24T10:32:43;10.95;;;9.48;;
77170;SDS011;66144;50.020;14.422;2023-06-24T10:35:28;10.60;;;9.68;;
77170;SDS011;66144;50.020;14.422;2023-06-24T10:37:57;10.55;;;9.20;;
77170;SDS011;66144;50.020;14.422;2023-06-24T10:40:42;9.93;;;9.02;;
77170;SDS011;66144;50.020;14.422;2023-06-24T10:45:49;9.05;;;7.38;;
77170;SDS011;66144;50.020;14.422;2023-06-24T10:48:16;8.68;;;7.78;;
77170;SDS011;66144;50.020;14.422;2023-06-24T10:50:44;7.60;;;6.90;;
77170;SDS011;66144;50.020;14.422;2023-06-24T10:53:10;9.32;;;8.00;;
77170;SDS011;66144;50.020;14.422;2023-06-24T10:55:37;7.47;;;6.68;;
77170;SDS011;66144;50.020;14.422;2023-06-24T10:58:07;7.45;;;6.68;;
77170;SDS011;66144;50.020;14.422;2023-06-24T11:00:34;8.05;;;7.25;;
77170;SDS011;66144;50.020;14.422;2023-06-24T11:03:15;8.48;;;7.30;;
77170;SDS011;66144;50.020;14.422;2023-06-24T11:05:41;8.82;;;8.00;;
77170;SDS011;66144;50.020;14.422;2023-06-24T11:08:08;7.85;;;7.05;;
77170;SDS011;66144;50.020;14.422;2023-06-24T11:10:45;8.80;;;6.57;;
77170;SDS011;66144;50.020;14.422;2023-06-24T11:13:11;7.80;;;7.10;;
77170;SDS011;66144;50.020;14.422;2023-06-24T11:15:38;7.43;;;6.63;;
77170;SDS011;66144;50.020;14.422;2023-06-24T11:18:05;7.55;;;6.80;;
77170;SDS011;66144;50.020;14.422;2023-06-24T11:20:35;7.38;;;6.68;;
77170;SDS011;66144;50.020;14.422;2023-06-24T11:23:02;7.60;;;6.80;;
77170;SDS011;66144;50.020;14.422;2023-06-24T11:25:27;7.90;;;6.15;;
77170;SDS011;66144;50.020;14.422;2023-06-24T11:27:52;7.63;;;6.22;;
77170;SDS011;66144;50.020;14.422;2023-06-24T11:30:18;7.32;;;6.53;;
77170;SDS011;66144;50.020;14.422;2023-06-24T11:32:44;8.73;;;7.25;;
77170;SDS011;66144;50.020;14.422;2023-06-24T11:35:10;7.53;;;6.35;;
77170;SDS011;66144;50.020;14.422;2023-06-24T11:37:40;7.72;;;6.53;;
77170;SDS011;66144;50.020;14.422;2023-06-24T11:40:07;6.80;;;6.10;;
77170;SDS011;66144;50.020;14.422;2023-06-24T11:42:37;7.15;;;5.90;;
77170;SDS011;66144;50.020;14.422;2023-06-24T11:45:08;6.95;;;6.18;;
77170;SDS011;66144;50.020;14.422;2023-06-24T11:47:36;6.60;;;6.00;;
77170;SDS011;66144;50.020;14.422;2023-06-24T11:50:03;7.63;;;6.45;;
77170;SDS011;66144;50.020;14.422;2023-06-24T11:52:48;7.00;;;6.20;;
77170;SDS011;66144;50.020;14.422;2023-06-24T11:55:20;6.80;;;5.88;;
77170;SDS011;66144;50.020;14.422;2023-06-24T12:00:23;7.35;;;5.68;;
77170;SDS011;66144;50.020;14.422;2023-06-24T12:02:53;7.55;;;5.63;;
77170;SDS011;66144;50.020;14.422;2023-06-24T12:05:23;5.60;;;4.80;;
77170;SDS011;66144;50.020;14.422;2023-06-24T12:07:57;6.22;;;5.63;;
77170;SDS011;66144;50.020;14.422;2023-06-24T12:10:27;6.60;;;5.90;;
77170;SDS011;66144;50.020;14.422;2023-06-24T12:12:54;5.40;;;4.90;;
77170;SDS011;66144;50.020;14.422;2023-06-24T12:15:19;6.07;;;5.47;;
77170;SDS011;66144;50.020;14.422;2023-06-24T12:17:45;6.05;;;5.15;;
77170;SDS011;66144;50.020;14.422;2023-06-24T12:20:13;6.80;;;5.32;;
77170;SDS011;66144;50.020;14.422;2023-06-24T12:22:43;5.72;;;4.97;;
77170;SDS011;66144;50.020;14.422;2023-06-24T12:25:09;6.63;;;5.15;;
77170;SDS011;66144;50.020;14.422;2023-06-24T12:27:34;5.85;;;5.03;;
77170;SDS011;66144;50.020;14.422;2023-06-24T12:30:00;5.63;;;5.03;;
77170;SDS011;66144;50.020;14.422;2023-06-24T12:32:26;5.03;;;4.25;;
77170;SDS011;66144;50.020;14.422;2023-06-24T12:34:51;5.25;;;4.75;;
77170;SDS011;66144;50.020;14.422;2023-06-24T12:37:16;6.53;;;4.60;;
77170;SDS011;66144;50.020;14.422;2023-06-24T12:39:42;7.47;;;4.90;;
77170;SDS011;66144;50.020;14.422;2023-06-24T12:42:08;5.10;;;4.03;;
77170;SDS011;66144;50.020;14.422;2023-06-24T12:44:33;7.18;;;4.93;;
77170;SDS011;66144;50.020;14.422;2023-06-24T12:46:58;5.93;;;4.82;;
77170;SDS011;66144;50.020;14.422;2023-06-24T12:49:24;6.63;;;5.18;;
77170;SDS011;66144;50.020;14.422;2023-06-24T12:51:49;6.40;;;5.25;;
77170;SDS011;66144;50.020;14.422;2023-06-24T12:54:15;6.55;;;4.90;;
77170;SDS011;66144;50.020;14.422;2023-06-24T12:56:40;5.40;;;4.88;;
77170;SDS011;66144;50.020;14.422;2023-06-24T12:59:06;5.30;;;4.63;;
77170;SDS011;66144;50.020;14.422;2023-06-24T13:01:31;6.47;;;4.65;;
77170;SDS011;66144;50.020;14.422;2023-06-24T13:03:57;4.65;;;3.97;;
77170;SDS011;66144;50.020;14.422;2023-06-24T13:06:22;4.78;;;4.10;;
77170;SDS011;66144;50.020;14.422;2023-06-24T13:08:47;5.07;;;4.05;;
77170;SDS011;66144;50.020;14.422;2023-06-24T13:11:13;5.00;;;4.50;;
77170;SDS011;66144;50.020;14.422;2023-06-24T13:13:38;5.75;;;4.53;;
77170;SDS011;66144;50.020;14.422;2023-06-24T13:16:03;5.05;;;4.53;;
77170;SDS011;66144;50.020;14.422;2023-06-24T13:18:29;5.78;;;4.55;;
77170;SDS011;66144;50.020;14.422;2023-06-24T13:20:54;5.75;;;4.20;;
77170;SDS011;66144;50.020;14.422;2023-06-24T13:23:20;5.35;;;3.92;;
77170;SDS011;66144;50.020;14.422;2023-06-24T13:25:45;5.38;;;4.40;;
77170;SDS011;66144;50.020;14.422;2023-06-24T13:28:10;6.13;;;4.25;;
77170;SDS011;66144;50.020;14.422;2023-06-24T13:30:36;5.18;;;4.43;;
77170;SDS011;66144;50.020;14.422;2023-06-24T13:33:01;6.28;;;4.47;;
77170;SDS011;66144;50.020;14.422;2023-06-24T13:35:26;5.07;;;4.57;;
77170;SDS011;66144;50.020;14.422;2023-06-24T13:37:52;5.95;;;5.03;;
77170;SDS011;66144;50.020;14.422;2023-06-24T13:40:17;5.78;;;4.75;;
77170;SDS011;66144;50.020;14.422;2023-06-24T13:42:43;7.43;;;5.05;;
77170;SDS011;66144;50.020;14.422;2023-06-24T13:45:08;6.07;;;5.03;;
77170;SDS011;66144;50.020;14.422;2023-06-24T13:47:35;6.70;;;4.85;;
77170;SDS011;66144;50.020;14.422;2023-06-24T13:50:01;5.85;;;4.55;;
77170;SDS011;66144;50.020;14.422;2023-06-24T13:52:27;5.65;;;4.35;;
77170;SDS011;66144;50.020;14.422;2023-06-24T13:54:53;5.55;;;4.75;;
77170;SDS011;66144;50.020;14.422;2023-06-24T13:57:18;6.18;;;5.32;;
77170;SDS011;66144;50.020;14.422;2023-06-24T13:59:44;6.38;;;4.78;;
77170;SDS011;66144;50.020;14.422;2023-06-24T14:02:09;6.05;;;4.90;;
77170;SDS011;66144;50.020;14.422;2023-06-24T14:04:36;6.22;;;4.82;;
77170;SDS011;66144;50.020;14.422;2023-06-24T14:07:02;5.80;;;4.50;;
77170;SDS011;66144;50.020;14.422;2023-06-24T14:09:29;6.97;;;5.07;;
77170;SDS011;66144;50.020;14.422;2023-06-24T14:11:55;7.40;;;5.47;;
77170;SDS011;66144;50.020;14.422;2023-06-24T14:14:20;6.13;;;4.80;;
77170;SDS011;66144;50.020;14.422;2023-06-24T14:16:46;7.50;;;5.13;;
77170;SDS011;66144;50.020;14.422;2023-06-24T14:19:12;8.15;;;5.18;;
77170;SDS011;66144;50.020;14.422;2023-06-24T14:21:37;7.43;;;5.40;;
77170;SDS011;66144;50.020;14.422;2023-06-24T14:24:04;5.70;;;4.85;;
77170;SDS011;66144;50.020;14.422;2023-06-24T14:26:30;7.93;;;4.93;;
77170;SDS011;66144;50.020;14.422;2023-06-24T14:28:55;7.45;;;5.28;;
77170;SDS011;66144;50.020;14.422;2023-06-24T14:31:21;6.93;;;5.07;;
77170;SDS011;66144;50.020;14.422;2023-06-24T14:33:46;9.60;;;4.93;;
77170;SDS011;66144;50.020;14.422;2023-06-24T14:36:11;8.70;;;5.07;;
77170;SDS011;66144;50.020;14.422;2023-06-24T14:38:37;7.30;;;4.70;;
77170;SDS011;66144;50.020;14.422;2023-06-24T14:41:02;7.10;;;5.47;;
77170;SDS011;66144;50.020;14.422;2023-06-24T14:43:27;7.75;;;5.70;;
77170;SDS011;66144;50.020;14.422;2023-06-24T14:45:53;7.80;;;5.60;;